NVVVNGTA

Guest
Details From NVVV - Bauerfield
To NGTA - Bonriki International
Flight Number -
Tags decoded
Created
Modified
Stats Distance 5,249 nm / 9,722 km
Max Altitude 0 ft / 0 m
Waypoints 7
Social Downloads 1
Likes 0
Share VATSIM

Download

Looking for another format? Having issues loading an existing format? Contact us
Advertisement - Login to hide

Notes

Requested: NVVV NFFN NFTF NSFA NCRG NTTH NTMD NGTA

Route

NVVV NFFN NFTF NSFA NCRG NTTH NGTA

ID Type Via Altitude Latitude Longitude Leg Dist Tot Dist Heading (true) Name
O NVVV APT - 0 ft / 0 m -17.69818˚ 168.31754˚ - 0 nm - Bauerfield
NFFN APT - 0 ft / 0 m -17.75837˚ 177.44215˚ 521 nm 521 nm 92° / 89° Nadi Intl
NFTF APT - 0 ft / 0 m -21.24249˚ -175.14457˚ 468 nm 990 nm 118° / 115° Fua Amotu Intl
NSFA APT - 0 ft / 0 m -13.83002˚ -172.00910˚ 479 nm 1470 nm 22° / 22° Faleolo International
NCRG APT - 0 ft / 0 m -21.20274˚ -159.80556˚ 826 nm 2297 nm 124° / 120° Rarotonga Intl
NTTH APT - 0 ft / 0 m -16.68724˚ -151.02167˚ 567 nm 2865 nm 63° / 60° Huahine
O NGTA APT - 0 ft / 0 m 1.38161˚ 173.14691˚ 2384 nm 5249 nm 294° / 299° Bonriki International

Altitude Profile

Advertisement - Login to hide

Weather


0- 5 10 15 20 25 30 35+ Temperature / ° C

Clouds and Precipitation
Forecast for 2017-12-11 06:00 UTC. Updated an hour ago

Ground ~20,000 ft ~40,000 ft Winds

NVVV

Details ICAO NVVV (VLI)
Name Bauerfield
Region Vanuatu
Timezone Pacific/Efate (UTC+11.0)
Stats Elevation 70 ft / 21 m (AMSL)
Location -17.698183° 168.317539°
Runways 1
Magnetic Variation 11.546° E

METAR

NVVV 110400Z 31004KT 5000 -SHRA FEW010 SCT018 BKN040 25/24 Q1007 RMK VIS REDUCED

Decode

TAF

TAF NVVV 102220Z 1100/1124 09006KT 9999 SCT020 PROB30 INTER 1100/1106 9000 -SHRA BKN018

Decode

Departure Runways

ID Width Length Bearing (true) Bearing (mag) Surface Threshold Offset Overrun Length
11 148 ft / 45 m 8,531 ft / 2,600 m 118.01° 106.46° Asphalt 0 ft / 0 m 197 ft / 60 m
29 148 ft / 45 m 8,531 ft / 2,600 m 298.01° 286.46° Asphalt 0 ft / 0 m 197 ft / 60 m

NGTA

Details ICAO NGTA (TRW)
Name Bonriki International
Region Kiribati and Tuvalu
Timezone Pacific/Tarawa (UTC+12.0)
Stats Elevation 9 ft / 3 m (AMSL)
Location 1.381608° 173.146907°
Runways 1
Magnetic Variation 9.230° E

METAR

NGTA 110400Z 01016KT 9999 FEW018TCU SCT040 OVC100 26/24 Q1006

Decode

TAF

TAF NGTA 102301Z 1100/1124 15008KT 9999 SCT018 BKN100 PROB40 TEMPO 1100/1112 5000 TSRA FEW018CB

Decode

Destination Runways

ID Width Length Bearing (true) Bearing (mag) Surface Threshold Offset Overrun Length
09 131 ft / 40 m 6,622 ft / 2,018 m 97.30° 88.07° Asphalt 0 ft / 0 m 213 ft / 65 m
27 131 ft / 40 m 6,622 ft / 2,018 m 277.30° 268.07° Asphalt 269 ft / 82 m 197 ft / 60 m

Popular Alternatives